Time;durP1;ratioP1;P1;durP2;ratioP2;P2;SDS_P1;SDS_P2;PMS_P1;PMS_P2;Temp;Humidity;BMP_temperature;BMP_pressure;BME280_temperature;BME280_humidity;BME280_pressure;Samples;Min_cycle;Max_cycle;Signal;HPM_P1;HPM_P2
2023/01/20 00:01:46;;;;;;;;;3.00;1.33;;;;;;;;117776;1179;24804;-59
2023/01/20 00:04:18;;;;;;;;;3.67;2.67;;;;;;;;117887;1192;25439;-60
2023/01/20 00:06:47;;;;;;;;;3.50;2.00;;;;;;;;117895;1181;24813;-60
2023/01/20 00:09:16;;;;;;;;;1.00;1.00;;;;;;;;117937;1187;25469;-60
2023/01/20 00:11:45;;;;;;;;;5.00;3.00;;;;;;;;117911;1179;24978;-60
2023/01/20 00:14:13;;;;;;;;;4.67;3.00;;;;;;;;117807;1183;25411;-60
2023/01/20 00:16:42;;;;;;;;;4.00;1.00;;;;;;;;117513;1180;25554;-60
2023/01/20 00:19:13;;;;;;;;;3.50;2.50;;;;;;;;117926;1189;24777;-60
2023/01/20 00:21:42;;;;;;;;;1.00;1.00;;;;;;;;117910;1192;25092;-60
2023/01/20 00:24:11;;;;;;;;;1.00;1.00;;;;;;;;117926;1190;24830;-60
2023/01/20 00:26:39;;;;;;;;;3.50;1.00;;;;;;;;117794;1192;25578;-60
2023/01/20 00:29:09;;;;;;;;;2.00;2.00;;;;;;;;117479;1192;24877;-59
2023/01/20 00:31:37;;;;;;;;;4.00;2.75;;;;;;;;117901;1187;25710;-60
2023/01/20 00:34:06;;;;;;;;;2.67;2.67;;;;;;;;117831;1180;25772;-60
2023/01/20 00:36:34;;;;;;;;;4.00;3.00;;;;;;;;117900;1181;24908;-61
2023/01/20 00:39:03;;;;;;;;;3.00;2.00;;;;;;;;117922;1192;25241;-63
2023/01/20 00:41:32;;;;;;;;;3.67;3.00;;;;;;;;117870;1181;25909;-61
2023/01/20 00:44:00;;;;;;;;;2.00;1.00;;;;;;;;117873;1180;25235;-61
2023/01/20 00:46:29;;;;;;;;;2.00;2.00;;;;;;;;117878;1186;25189;-65
2023/01/20 00:48:57;;;;;;;;;2.00;2.00;;;;;;;;117478;1180;24723;-61
2023/01/20 00:51:26;;;;;;;;;3.50;3.50;;;;;;;;117551;1180;25581;-61
2023/01/20 00:53:55;;;;;;;;;2.00;1.50;;;;;;;;117841;1192;25660;-61
2023/01/20 00:56:24;;;;;;;;;2.00;2.00;;;;;;;;117899;1180;24890;-61
2023/01/20 00:58:54;;;;;;;;;2.67;2.67;;;;;;;;117904;1184;25059;-63
2023/01/20 01:01:23;;;;;;;;;2.50;2.50;;;;;;;;117817;1181;24909;-61
2023/01/20 01:03:55;;;;;;;;;3.50;3.00;;;;;;;;117885;1180;25100;-64
2023/01/20 01:06:23;;;;;;;;;4.00;3.00;;;;;;;;117861;1181;24734;-59
2023/01/20 01:08:52;;;;;;;;;3.33;2.00;;;;;;;;117902;1181;25222;-59
2023/01/20 01:11:20;;;;;;;;;2.00;2.00;;;;;;;;117772;1187;25105;-60
2023/01/20 01:13:49;;;;;;;;;5.33;2.00;;;;;;;;117830;1180;25631;-60
2023/01/20 01:16:17;;;;;;;;;3.00;2.00;;;;;;;;117886;1179;25290;-60
2023/01/20 01:18:46;;;;;;;;;4.50;3.00;;;;;;;;117810;1181;24694;-60
2023/01/20 01:21:16;;;;;;;;;2.67;2.00;;;;;;;;117876;1191;25545;-60
2023/01/20 01:23:44;;;;;;;;;2.50;2.00;;;;;;;;117828;1180;25602;-60
2023/01/20 01:26:13;;;;;;;;;4.00;3.00;;;;;;;;117834;1192;24796;-60
2023/01/20 01:28:41;;;;;;;;;4.50;3.50;;;;;;;;117842;1190;25103;-60
2023/01/20 01:31:10;;;;;;;;;2.00;2.00;;;;;;;;117985;1179;24857;-60
2023/01/20 01:33:39;;;;;;;;;1.00;1.00;;;;;;;;117918;1180;25154;-60
2023/01/20 01:36:12;;;;;;;;;2.00;2.00;;;;;;;;117819;1180;25227;-60
2023/01/20 01:38:41;;;;;;;;;2.00;2.00;;;;;;;;117908;1181;25323;-61
2023/01/20 01:41:12;;;;;;;;;3.00;2.00;;;;;;;;117921;1179;25462;-60
2023/01/20 01:43:59;;;;;;;;;1.25;1.25;;;;;;;;117832;1188;25048;-62
2023/01/20 01:46:27;;;;;;;;;3.00;1.33;;;;;;;;117852;1192;25142;-63
2023/01/20 01:48:56;;;;;;;;;4.00;2.00;;;;;;;;117894;1179;25595;-62
2023/01/20 01:51:33;;;;;;;;;2.00;2.00;;;;;;;;117856;1192;25128;-61
2023/01/20 01:54:07;;;;;;;;;1.00;1.00;;;;;;;;117658;1189;25339;-60
2023/01/20 01:56:36;;;;;;;;;2.67;2.67;;;;;;;;117480;1180;24815;-60
2023/01/20 01:59:04;;;;;;;;;2.00;1.00;;;;;;;;117490;1192;24940;-60
2023/01/20 02:01:34;;;;;;;;;4.00;2.00;;;;;;;;117580;1180;25175;-59
2023/01/20 02:04:06;;;;;;;;;1.33;1.33;;;;;;;;117897;1180;25566;-60
2023/01/20 02:06:39;;;;;;;;;3.00;1.33;;;;;;;;117912;1180;25642;-60
2023/01/20 02:09:08;;;;;;;;;1.00;0.50;;;;;;;;117948;1179;26446;-60
2023/01/20 02:11:47;;;;;;;;;3.00;2.00;;;;;;;;117917;1181;25293;-60
2023/01/20 02:14:17;;;;;;;;;1.25;1.25;;;;;;;;117892;1180;24868;-60
2023/01/20 02:16:57;;;;;;;;;3.00;1.50;;;;;;;;117933;1180;25076;-60
2023/01/20 02:19:42;;;;;;;;;2.50;2.00;;;;;;;;117961;1188;24884;-59
2023/01/20 02:22:13;;;;;;;;;2.00;1.00;;;;;;;;117841;1185;25508;-60
2023/01/20 02:24:44;;;;;;;;;2.67;1.67;;;;;;;;117911;1179;25343;-60
2023/01/20 02:27:14;;;;;;;;;3.00;1.00;;;;;;;;117923;1178;25532;-60
2023/01/20 02:29:42;;;;;;;;;2.25;2.00;;;;;;;;117805;1192;25529;-60
2023/01/20 02:32:36;;;;;;;;;1.75;1.25;;;;;;;;117917;1181;25120;-60
2023/01/20 02:35:08;;;;;;;;;3.50;2.00;;;;;;;;117909;1180;25584;-60
2023/01/20 02:38:06;;;;;;;;;5.33;2.33;;;;;;;;117901;1183;24809;-60
2023/01/20 02:40:45;;;;;;;;;2.25;2.25;;;;;;;;117915;1179;25492;-61
2023/01/20 02:43:50;;;;;;;;;1.00;0.50;;;;;;;;117937;1179;25503;-60
2023/01/20 02:46:31;;;;;;;;;2.33;2.33;;;;;;;;117330;1189;25293;-60
2023/01/20 02:49:22;;;;;;;;;2.00;1.00;;;;;;;;117849;1192;25274;-60
2023/01/20 02:51:55;;;;;;;;;2.67;2.67;;;;;;;;117666;1180;25649;-60
2023/01/20 02:54:27;;;;;;;;;1.75;1.75;;;;;;;;117904;1180;25046;-60
2023/01/20 02:56:57;;;;;;;;;2.50;2.50;;;;;;;;117961;1179;24834;-60
2023/01/20 02:59:29;;;;;;;;;1.67;1.67;;;;;;;;117886;1178;25336;-60
2023/01/20 03:02:15;;;;;;;;;2.00;2.00;;;;;;;;117778;1180;26265;-60
2023/01/20 03:04:50;;;;;;;;;1.00;1.00;;;;;;;;117616;1183;24803;-59
2023/01/20 03:07:23;;;;;;;;;2.00;2.00;;;;;;;;117895;1183;25063;-59
2023/01/20 03:09:55;;;;;;;;;3.00;1.00;;;;;;;;117872;1183;24857;-59
2023/01/20 03:12:30;;;;;;;;;4.00;2.00;;;;;;;;117811;1192;24810;-60
2023/01/20 03:14:58;;;;;;;;;3.00;3.00;;;;;;;;117894;1179;25459;-61
2023/01/20 03:17:31;;;;;;;;;2.00;1.00;;;;;;;;117953;1180;25245;-60
2023/01/20 03:20:00;;;;;;;;;2.75;2.75;;;;;;;;117845;1183;25465;-59
2023/01/20 03:22:29;;;;;;;;;5.00;2.25;;;;;;;;117780;1180;25664;-59
2023/01/20 03:24:58;;;;;;;;;3.33;3.33;;;;;;;;117780;1179;25783;-63
2023/01/20 03:27:27;;;;;;;;;3.50;3.00;;;;;;;;117920;1192;25195;-62
2023/01/20 03:29:55;;;;;;;;;4.75;2.00;;;;;;;;117766;1181;25428;-62
2023/01/20 03:32:25;;;;;;;;;3.75;2.75;;;;;;;;117878;1179;25654;-66
2023/01/20 03:34:55;;;;;;;;;2.00;2.00;;;;;;;;117787;1180;25535;-62
2023/01/20 03:37:23;;;;;;;;;3.00;3.00;;;;;;;;117929;1180;25546;-63
2023/01/20 03:39:52;;;;;;;;;6.00;4.50;;;;;;;;117781;1180;25047;-61
2023/01/20 03:42:28;;;;;;;;;5.75;5.75;;;;;;;;117896;1179;24778;-61
2023/01/20 03:45:12;;;;;;;;;7.00;4.00;;;;;;;;117905;1180;24971;-61
2023/01/20 03:48:12;;;;;;;;;2.33;2.33;;;;;;;;117884;1186;25604;-61
2023/01/20 03:50:53;;;;;;;;;4.00;3.00;;;;;;;;117904;1192;25974;-61
2023/01/20 03:53:44;;;;;;;;;2.50;2.50;;;;;;;;117910;1179;25134;-61
2023/01/20 03:56:28;;;;;;;;;4.00;3.00;;;;;;;;117952;1180;25616;-61
2023/01/20 03:58:59;;;;;;;;;3.67;3.67;;;;;;;;117909;1191;25304;-61
2023/01/20 04:01:36;;;;;;;;;7.00;4.00;;;;;;;;117912;1187;25256;-61
2023/01/20 04:04:08;;;;;;;;;5.67;4.33;;;;;;;;117898;1192;25115;-61
2023/01/20 04:06:39;;;;;;;;;7.00;4.00;;;;;;;;117905;1180;24939;-61
2023/01/20 04:09:12;;;;;;;;;7.00;2.50;;;;;;;;117829;1181;25253;-61
2023/01/20 04:11:41;;;;;;;;;6.00;3.33;;;;;;;;117860;1192;25552;-61
2023/01/20 04:14:09;;;;;;;;;4.00;3.00;;;;;;;;117861;1192;25066;-62
2023/01/20 04:16:38;;;;;;;;;7.25;5.25;;;;;;;;117909;1181;25322;-61
2023/01/20 04:19:06;;;;;;;;;5.00;5.00;;;;;;;;117982;1192;25140;-61
2023/01/20 04:21:48;;;;;;;;;3.67;3.00;;;;;;;;117896;1180;25471;-61
2023/01/20 04:24:24;;;;;;;;;5.33;3.67;;;;;;;;117864;1180;25143;-61
2023/01/20 04:26:52;;;;;;;;;4.00;3.50;;;;;;;;117746;1179;24884;-61
2023/01/20 04:29:21;;;;;;;;;4.50;3.50;;;;;;;;117877;1179;25250;-61
2023/01/20 04:31:49;;;;;;;;;7.25;6.00;;;;;;;;117894;1181;25245;-60
2023/01/20 04:34:18;;;;;;;;;4.00;4.00;;;;;;;;117816;1181;24854;-62
2023/01/20 04:36:46;;;;;;;;;4.33;4.00;;;;;;;;117866;1189;25488;-64
2023/01/20 04:39:15;;;;;;;;;3.67;3.67;;;;;;;;117904;1180;25403;-68
2023/01/20 04:41:43;;;;;;;;;6.00;4.50;;;;;;;;117921;1183;24799;-64
2023/01/20 04:44:12;;;;;;;;;5.00;5.00;;;;;;;;117936;1192;25034;-62
2023/01/20 04:46:40;;;;;;;;;6.75;5.50;;;;;;;;117913;1192;26057;-62
2023/01/20 04:49:09;;;;;;;;;5.33;4.33;;;;;;;;117942;1179;24932;-62
2023/01/20 04:51:38;;;;;;;;;9.67;4.33;;;;;;;;117957;1192;24956;-62
2023/01/20 04:54:06;;;;;;;;;4.00;4.00;;;;;;;;117846;1186;25637;-62
2023/01/20 04:56:35;;;;;;;;;6.00;4.25;;;;;;;;117914;1187;24895;-62
2023/01/20 04:59:04;;;;;;;;;5.67;5.67;;;;;;;;117795;1192;24887;-61
2023/01/20 05:01:32;;;;;;;;;3.67;3.67;;;;;;;;117798;1191;25024;-62
2023/01/20 05:04:01;;;;;;;;;6.00;4.00;;;;;;;;117829;1180;25308;-62
2023/01/20 05:06:29;;;;;;;;;6.00;4.00;;;;;;;;117819;1187;24897;-62
2023/01/20 05:08:57;;;;;;;;;4.67;4.00;;;;;;;;117880;1187;25671;-62
2023/01/20 05:11:26;;;;;;;;;3.50;3.50;;;;;;;;117920;1191;25091;-63
2023/01/20 05:13:54;;;;;;;;;6.00;5.00;;;;;;;;117934;1180;24990;-62
2023/01/20 05:16:24;;;;;;;;;3.00;3.00;;;;;;;;117856;1180;24721;-59
2023/01/20 05:18:53;;;;;;;;;3.67;3.67;;;;;;;;117930;1180;24916;-62
2023/01/20 05:21:21;;;;;;;;;5.00;5.00;;;;;;;;117867;1191;25083;-61
2023/01/20 05:23:53;;;;;;;;;5.00;4.50;;;;;;;;117881;1179;25075;-61
2023/01/20 05:26:22;;;;;;;;;5.50;3.00;;;;;;;;117886;1191;24922;-61
2023/01/20 05:28:51;;;;;;;;;2.50;2.50;;;;;;;;117908;1180;25498;-61
2023/01/20 05:31:20;;;;;;;;;3.00;3.00;;;;;;;;117932;1181;24863;-62
2023/01/20 05:33:49;;;;;;;;;4.00;4.00;;;;;;;;117893;1180;25352;-62
2023/01/20 05:36:17;;;;;;;;;3.00;3.00;;;;;;;;117840;1190;24901;-62
2023/01/20 05:38:45;;;;;;;;;3.67;2.67;;;;;;;;117853;1180;24973;-62
2023/01/20 05:41:14;;;;;;;;;2.00;2.00;;;;;;;;117851;1192;25669;-62
2023/01/20 05:43:42;;;;;;;;;6.33;5.33;;;;;;;;117868;1180;25841;-62
2023/01/20 05:46:11;;;;;;;;;3.33;3.33;;;;;;;;117896;1192;25260;-61
2023/01/20 05:48:39;;;;;;;;;4.50;3.75;;;;;;;;117952;1180;25101;-61
2023/01/20 05:51:07;;;;;;;;;4.00;2.00;;;;;;;;117887;1180;25536;-61
2023/01/20 05:53:36;;;;;;;;;4.67;3.33;;;;;;;;117869;1192;25503;-62
2023/01/20 05:56:05;;;;;;;;;5.00;4.33;;;;;;;;117814;1179;24727;-62
2023/01/20 05:58:33;;;;;;;;;7.00;5.50;;;;;;;;117941;1192;26673;-62
2023/01/20 06:01:06;;;;;;;;;5.33;4.00;;;;;;;;117900;1179;25051;-61
2023/01/20 06:03:36;;;;;;;;;7.67;5.67;;;;;;;;117952;1192;24845;-61
2023/01/20 06:06:06;;;;;;;;;6.33;6.33;;;;;;;;117801;1181;25524;-61
2023/01/20 06:08:35;;;;;;;;;6.00;6.00;;;;;;;;117724;1180;24820;-61
2023/01/20 06:11:04;;;;;;;;;8.00;4.00;;;;;;;;117527;1180;25029;-61
2023/01/20 06:13:34;;;;;;;;;4.67;4.00;;;;;;;;117464;1183;25314;-61
2023/01/20 06:16:03;;;;;;;;;5.67;5.67;;;;;;;;117922;1179;25039;-61
2023/01/20 06:18:34;;;;;;;;;5.00;5.00;;;;;;;;117784;1179;24890;-61
2023/01/20 06:21:03;;;;;;;;;7.00;6.00;;;;;;;;117957;1180;25234;-61
2023/01/20 06:23:32;;;;;;;;;5.00;5.00;;;;;;;;117915;1180;25086;-61
2023/01/20 06:26:06;;;;;;;;;3.67;3.67;;;;;;;;117525;1180;25350;-61
2023/01/20 06:28:35;;;;;;;;;6.33;5.00;;;;;;;;117843;1181;25042;-62
2023/01/20 06:31:21;;;;;;;;;6.25;5.50;;;;;;;;117496;1180;25588;-62
2023/01/20 06:33:50;;;;;;;;;6.67;4.00;;;;;;;;117815;1181;24900;-62
2023/01/20 06:36:19;;;;;;;;;6.00;6.00;;;;;;;;117955;1179;25733;-63
2023/01/20 06:38:49;;;;;;;;;7.00;5.00;;;;;;;;117898;1180;25576;-61
2023/01/20 06:41:19;;;;;;;;;7.00;6.00;;;;;;;;117504;1187;24836;-60
2023/01/20 06:43:49;;;;;;;;;8.00;5.00;;;;;;;;117855;1185;24815;-61
2023/01/20 06:46:17;;;;;;;;;8.50;6.50;;;;;;;;117845;1181;24690;-61
2023/01/20 06:48:45;;;;;;;;;7.00;5.00;;;;;;;;117525;1181;24766;-61
2023/01/20 06:51:18;;;;;;;;;5.33;4.67;;;;;;;;117758;1192;25222;-61
2023/01/20 06:53:47;;;;;;;;;6.00;5.33;;;;;;;;117784;1179;25616;-61
2023/01/20 06:56:15;;;;;;;;;9.25;6.75;;;;;;;;117797;1180;25042;-61
2023/01/20 06:58:44;;;;;;;;;7.00;6.50;;;;;;;;117488;1180;24851;-62
2023/01/20 07:01:22;;;;;;;;;9.00;9.00;;;;;;;;117771;1189;24987;-61
2023/01/20 07:03:51;;;;;;;;;7.25;7.00;;;;;;;;117785;1180;24806;-61
2023/01/20 07:06:39;;;;;;;;;7.50;7.50;;;;;;;;117813;1189;25723;-61
2023/01/20 07:09:12;;;;;;;;;9.00;7.00;;;;;;;;117807;1181;24870;-61
2023/01/20 07:11:40;;;;;;;;;7.33;6.00;;;;;;;;117815;1186;25218;-61
2023/01/20 07:14:09;;;;;;;;;9.00;7.00;;;;;;;;117844;1180;25010;-60
2023/01/20 07:16:37;;;;;;;;;7.50;7.00;;;;;;;;117821;1181;25394;-61
2023/01/20 07:19:06;;;;;;;;;6.50;6.50;;;;;;;;117894;1181;25319;-60
2023/01/20 07:21:34;;;;;;;;;8.00;6.00;;;;;;;;117904;1192;24714;-62
2023/01/20 07:24:03;;;;;;;;;10.00;9.50;;;;;;;;117913;1192;25174;-61
2023/01/20 07:26:32;;;;;;;;;10.50;9.25;;;;;;;;117938;1179;25497;-61
2023/01/20 07:29:00;;;;;;;;;11.50;10.50;;;;;;;;117849;1186;25423;-61
2023/01/20 07:31:30;;;;;;;;;8.75;8.25;;;;;;;;117870;1179;25534;-62
2023/01/20 07:33:59;;;;;;;;;10.00;10.00;;;;;;;;117921;1180;25021;-61
2023/01/20 07:36:27;;;;;;;;;11.00;10.00;;;;;;;;117951;1180;24789;-62
2023/01/20 07:38:56;;;;;;;;;12.00;10.33;;;;;;;;117950;1181;25021;-61
2023/01/20 07:41:24;;;;;;;;;9.00;9.00;;;;;;;;117924;1190;24827;-61
2023/01/20 07:43:53;;;;;;;;;16.00;12.00;;;;;;;;117819;1181;25124;-62
2023/01/20 07:46:21;;;;;;;;;12.33;11.33;;;;;;;;117945;1180;24859;-61
2023/01/20 07:48:50;;;;;;;;;10.50;10.50;;;;;;;;117830;1185;24896;-61
2023/01/20 07:51:18;;;;;;;;;13.33;11.67;;;;;;;;117902;1180;24934;-61
2023/01/20 07:53:49;;;;;;;;;15.33;14.33;;;;;;;;117943;1192;25438;-61
2023/01/20 07:56:20;;;;;;;;;15.00;12.25;;;;;;;;117806;1179;24797;-62
2023/01/20 07:58:49;;;;;;;;;13.00;11.33;;;;;;;;117951;1187;24977;-61
2023/01/20 08:01:19;;;;;;;;;10.50;10.50;;;;;;;;117832;1180;25282;-62
2023/01/20 08:03:48;;;;;;;;;9.67;9.33;;;;;;;;117927;1180;25417;-62
2023/01/20 08:06:20;;;;;;;;;12.00;12.00;;;;;;;;117860;1180;24731;-62
2023/01/20 08:08:49;;;;;;;;;11.33;8.67;;;;;;;;117728;1180;25059;-62
2023/01/20 08:11:19;;;;;;;;;6.00;6.00;;;;;;;;117829;1180;24877;-62
2023/01/20 08:13:48;;;;;;;;;10.00;10.00;;;;;;;;117633;1191;24680;-62
2023/01/20 08:16:17;;;;;;;;;12.33;10.00;;;;;;;;117658;1192;26205;-62
2023/01/20 08:18:47;;;;;;;;;12.00;10.00;;;;;;;;117877;1183;24895;-61
2023/01/20 08:21:19;;;;;;;;;11.00;10.00;;;;;;;;117613;1181;25623;-61
2023/01/20 08:23:48;;;;;;;;;9.25;8.00;;;;;;;;117617;1179;25662;-62
2023/01/20 08:26:18;;;;;;;;;12.50;10.00;;;;;;;;117640;1180;25582;-62
2023/01/20 08:28:47;;;;;;;;;12.67;11.00;;;;;;;;117820;1180;25408;-62
2023/01/20 08:31:18;;;;;;;;;9.00;9.00;;;;;;;;117808;1180;25609;-62
2023/01/20 08:33:48;;;;;;;;;10.33;10.33;;;;;;;;117827;1179;25196;-63
2023/01/20 08:36:25;;;;;;;;;11.00;10.00;;;;;;;;117825;1186;26217;-63
2023/01/20 08:38:58;;;;;;;;;10.00;10.00;;;;;;;;117690;1192;25333;-62
2023/01/20 08:41:31;;;;;;;;;12.33;12.33;;;;;;;;117834;1183;25639;-62
2023/01/20 08:44:01;;;;;;;;;10.00;10.00;;;;;;;;117843;1180;25127;-63
2023/01/20 08:46:30;;;;;;;;;13.75;12.25;;;;;;;;117644;1190;25467;-62
2023/01/20 08:48:59;;;;;;;;;9.50;9.00;;;;;;;;117795;1192;25665;-63
2023/01/20 08:51:30;;;;;;;;;11.00;9.50;;;;;;;;117852;1192;25617;-63
2023/01/20 08:53:59;;;;;;;;;10.33;10.33;;;;;;;;117572;1180;25163;-64
2023/01/20 08:56:28;;;;;;;;;11.50;11.50;;;;;;;;117870;1179;25261;-62
2023/01/20 08:58:57;;;;;;;;;16.00;12.67;;;;;;;;117797;1183;24882;-62
2023/01/20 09:01:28;;;;;;;;;11.00;9.00;;;;;;;;117844;1179;25399;-63
2023/01/20 09:03:57;;;;;;;;;12.33;10.67;;;;;;;;117682;1179;24991;-62
2023/01/20 09:06:45;;;;;;;;;12.67;12.33;;;;;;;;117842;1181;25457;-65
2023/01/20 09:09:15;;;;;;;;;12.75;11.75;;;;;;;;117886;1192;25087;-63
2023/01/20 09:11:49;;;;;;;;;12.00;12.00;;;;;;;;117757;1180;25366;-64
2023/01/20 09:14:20;;;;;;;;;12.67;12.00;;;;;;;;117840;1181;25732;-64
2023/01/20 09:16:48;;;;;;;;;15.00;13.00;;;;;;;;117859;1180;25431;-63
2023/01/20 09:19:17;;;;;;;;;8.00;8.00;;;;;;;;117918;1183;24850;-64
2023/01/20 09:21:45;;;;;;;;;13.00;11.00;;;;;;;;117886;1181;25655;-63
2023/01/20 09:24:14;;;;;;;;;15.75;15.25;;;;;;;;117855;1180;25486;-64
2023/01/20 09:26:43;;;;;;;;;13.50;13.00;;;;;;;;117825;1181;25541;-63
2023/01/20 09:29:14;;;;;;;;;13.00;13.00;;;;;;;;117939;1180;25569;-62
2023/01/20 09:31:48;;;;;;;;;13.00;12.67;;;;;;;;117911;1180;26436;-64
2023/01/20 09:34:20;;;;;;;;;14.00;11.50;;;;;;;;117822;1179;25429;-61
2023/01/20 09:36:53;;;;;;;;;12.50;10.25;;;;;;;;117805;1181;26046;-63
2023/01/20 09:45:38;;;;;;;;;15.00;15.00;;;;;;;;117892;1183;26012;-67
2023/01/20 09:54:06;;;;;;;;;12.00;11.00;;;;;;;;117868;1180;24783;-63
2023/01/20 09:56:39;;;;;;;;;15.00;14.00;;;;;;;;117865;1179;26260;-63
2023/01/20 09:59:13;;;;;;;;;17.00;14.50;;;;;;;;117667;1187;25333;-63
2023/01/20 10:01:45;;;;;;;;;15.00;13.50;;;;;;;;117861;1181;24764;-63
2023/01/20 10:04:33;;;;;;;;;16.67;15.67;;;;;;;;117753;1192;25036;-63
2023/01/20 10:07:23;;;;;;;;;11.00;10.00;;;;;;;;117901;1183;25101;-64
2023/01/20 10:10:05;;;;;;;;;16.00;14.33;;;;;;;;117853;1180;24921;-62
2023/01/20 10:12:59;;;;;;;;;15.00;15.00;;;;;;;;117834;1192;25921;-63
2023/01/20 10:15:36;;;;;;;;;15.50;15.00;;;;;;;;117856;1180;25220;-62
2023/01/20 10:18:22;;;;;;;;;21.25;16.75;;;;;;;;117907;1187;24927;-66
2023/01/20 10:21:22;;;;;;;;;11.00;10.50;;;;;;;;117861;1179;26421;-63
2023/01/20 10:24:09;;;;;;;;;19.67;14.00;;;;;;;;117745;1179;25679;-64
2023/01/20 10:27:02;;;;;;;;;17.00;15.00;;;;;;;;117897;1192;25096;-64
2023/01/20 10:29:35;;;;;;;;;15.00;12.33;;;;;;;;117809;1180;26343;-63
2023/01/20 10:32:11;;;;;;;;;16.00;15.00;;;;;;;;117885;1183;25031;-64
2023/01/20 10:34:45;;;;;;;;;14.25;12.50;;;;;;;;117826;1180;25264;-63
2023/01/20 10:37:14;;;;;;;;;19.00;13.00;;;;;;;;117907;1192;25452;-63
2023/01/20 10:39:55;;;;;;;;;16.67;14.67;;;;;;;;117858;1181;24786;-62
2023/01/20 10:42:24;;;;;;;;;12.33;12.33;;;;;;;;117886;1182;25672;-63
2023/01/20 10:44:52;;;;;;;;;17.50;16.00;;;;;;;;117861;1181;25286;-61
2023/01/20 10:47:27;;;;;;;;;18.00;16.00;;;;;;;;117837;1179;24880;-62
2023/01/20 10:50:12;;;;;;;;;13.00;13.00;;;;;;;;117858;1179;24713;-62
2023/01/20 10:52:43;;;;;;;;;15.50;13.50;;;;;;;;117937;1180;25534;-62
2023/01/20 10:55:53;;;;;;;;;14.00;12.00;;;;;;;;117929;1192;26118;-62
2023/01/20 10:58:31;;;;;;;;;17.00;14.50;;;;;;;;117817;1181;25027;-62
2023/01/20 11:01:03;;;;;;;;;15.33;14.00;;;;;;;;117919;1179;25224;-63
2023/01/20 11:03:36;;;;;;;;;16.00;12.33;;;;;;;;117927;1181;25357;-62
2023/01/20 11:06:05;;;;;;;;;14.50;14.25;;;;;;;;117909;1180;24925;-62
2023/01/20 11:08:33;;;;;;;;;18.00;17.00;;;;;;;;117796;1181;25674;-62
2023/01/20 11:11:11;;;;;;;;;18.00;16.00;;;;;;;;117894;1179;25718;-61
2023/01/20 11:13:39;;;;;;;;;13.00;11.00;;;;;;;;117922;1183;25445;-62
2023/01/20 11:16:16;;;;;;;;;14.00;12.33;;;;;;;;117901;1180;24884;-61
2023/01/20 11:19:11;;;;;;;;;14.67;12.67;;;;;;;;117808;1192;24920;-62
2023/01/20 11:21:40;;;;;;;;;17.50;14.00;;;;;;;;117865;1190;24823;-61
2023/01/20 11:24:35;;;;;;;;;17.75;14.50;;;;;;;;117908;1188;25155;-61
2023/01/20 11:27:05;;;;;;;;;14.33;13.00;;;;;;;;117917;1180;25048;-62
2023/01/20 11:29:40;;;;;;;;;14.50;14.25;;;;;;;;117502;1180;24939;-62
2023/01/20 11:32:29;;;;;;;;;13.00;12.33;;;;;;;;117895;1180;25072;-61
2023/01/20 11:34:59;;;;;;;;;16.33;15.00;;;;;;;;117880;1180;25566;-61
2023/01/20 11:37:38;;;;;;;;;12.75;9.00;;;;;;;;117787;1191;25494;-62
2023/01/20 11:40:22;;;;;;;;;15.50;14.50;;;;;;;;117518;1192;25235;-62
2023/01/20 11:42:52;;;;;;;;;16.00;14.00;;;;;;;;117904;1192;25600;-62
2023/01/20 11:45:33;;;;;;;;;12.33;12.00;;;;;;;;117889;1180;25195;-62
2023/01/20 11:48:14;;;;;;;;;12.00;12.00;;;;;;;;117793;1179;25141;-61
2023/01/20 11:50:49;;;;;;;;;14.25;10.75;;;;;;;;117838;1179;25552;-61
2023/01/20 11:53:20;;;;;;;;;16.00;10.00;;;;;;;;117846;1180;24740;-62
2023/01/20 11:55:57;;;;;;;;;13.00;12.00;;;;;;;;117864;1179;25464;-62
2023/01/20 11:58:31;;;;;;;;;14.00;12.00;;;;;;;;117906;1183;25569;-62
2023/01/20 12:01:00;;;;;;;;;14.50;11.00;;;;;;;;117506;1180;25542;-63
2023/01/20 12:03:32;;;;;;;;;12.00;12.00;;;;;;;;117908;1191;25445;-62
2023/01/20 12:06:06;;;;;;;;;17.00;16.33;;;;;;;;117796;1192;25019;-62
2023/01/20 12:08:45;;;;;;;;;17.00;14.00;;;;;;;;117902;1180;26222;-62
2023/01/20 12:11:20;;;;;;;;;13.50;13.25;;;;;;;;117873;1188;24932;-62
2023/01/20 12:14:22;;;;;;;;;9.67;9.67;;;;;;;;117867;1179;24890;-62
2023/01/20 12:17:18;;;;;;;;;14.50;14.50;;;;;;;;117861;1179;25688;-62
2023/01/20 12:19:54;;;;;;;;;13.50;12.00;;;;;;;;117757;1181;24873;-61
2023/01/20 12:22:37;;;;;;;;;17.50;12.25;;;;;;;;117814;1179;25210;-62
2023/01/20 12:25:21;;;;;;;;;13.75;11.00;;;;;;;;117843;1179;25414;-63
2023/01/20 12:27:54;;;;;;;;;12.50;11.50;;;;;;;;117891;1180;25481;-62
2023/01/20 12:30:52;;;;;;;;;14.50;12.00;;;;;;;;117886;1179;25410;-62
2023/01/20 12:33:34;;;;;;;;;13.50;12.00;;;;;;;;117929;1192;24851;-63
2023/01/20 12:36:31;;;;;;;;;14.50;10.50;;;;;;;;117886;1192;26352;-61
2023/01/20 12:39:27;;;;;;;;;11.00;9.00;;;;;;;;117897;1180;24962;-62
2023/01/20 12:42:08;;;;;;;;;15.00;12.75;;;;;;;;117480;1180;25286;-61
2023/01/20 12:44:46;;;;;;;;;11.33;11.00;;;;;;;;117923;1192;25512;-62
2023/01/20 12:47:24;;;;;;;;;13.33;13.33;;;;;;;;117886;1190;24850;-62
2023/01/20 12:50:05;;;;;;;;;12.67;11.33;;;;;;;;117833;1180;25592;-61
2023/01/20 12:53:00;;;;;;;;;12.00;11.00;;;;;;;;117485;1187;25037;-61
2023/01/20 12:56:03;;;;;;;;;9.33;9.33;;;;;;;;117903;1192;24923;-61
2023/01/20 12:59:20;;;;;;;;;13.00;13.00;;;;;;;;117695;1179;24889;-61
2023/01/20 13:01:54;;;;;;;;;10.50;10.50;;;;;;;;117356;1195;25677;-61
2023/01/20 13:04:22;;;;;;;;;13.25;10.75;;;;;;;;117862;1179;26198;-62
2023/01/20 13:06:57;;;;;;;;;11.00;10.75;;;;;;;;117845;1192;25678;-62
2023/01/20 13:09:44;;;;;;;;;10.67;10.67;;;;;;;;117815;1192;25329;-62
2023/01/20 13:12:35;;;;;;;;;13.33;13.33;;;;;;;;117515;1181;25573;-63
2023/01/20 13:15:25;;;;;;;;;17.00;12.00;;;;;;;;117843;1181;24874;-62
2023/01/20 13:18:06;;;;;;;;;11.50;11.00;;;;;;;;117519;1180;25661;-68
2023/01/20 13:20:38;;;;;;;;;13.00;11.00;;;;;;;;117874;1179;24788;-67
2023/01/20 13:23:30;;;;;;;;;14.33;14.33;;;;;;;;117930;1179;25309;-65
2023/01/20 13:25:59;;;;;;;;;9.50;9.50;;;;;;;;117635;1180;25176;-63
2023/01/20 13:28:29;;;;;;;;;10.00;10.00;;;;;;;;117804;1183;25292;-62
2023/01/20 13:30:59;;;;;;;;;13.67;13.00;;;;;;;;117496;1192;25038;-62
2023/01/20 13:33:34;;;;;;;;;13.67;13.00;;;;;;;;117890;1180;24802;-60
2023/01/20 13:36:20;;;;;;;;;13.25;11.50;;;;;;;;117890;1183;25383;-61
2023/01/20 13:38:50;;;;;;;;;11.67;11.33;;;;;;;;117528;1180;25118;-62
2023/01/20 13:41:50;;;;;;;;;11.00;9.00;;;;;;;;117875;1189;25404;-62
2023/01/20 13:44:31;;;;;;;;;15.67;13.33;;;;;;;;117890;1192;24867;-61
2023/01/20 13:47:00;;;;;;;;;15.00;13.00;;;;;;;;117873;1179;26334;-61
2023/01/20 13:49:50;;;;;;;;;13.00;13.00;;;;;;;;117899;1179;24776;-61
2023/01/20 13:52:51;;;;;;;;;12.25;12.25;;;;;;;;117903;1181;24949;-62
2023/01/20 13:55:38;;;;;;;;;15.00;12.00;;;;;;;;117688;1182;25488;-61
2023/01/20 13:58:24;;;;;;;;;13.00;13.00;;;;;;;;117474;1180;24822;-61
2023/01/20 14:00:58;;;;;;;;;13.67;13.00;;;;;;;;117868;1192;25123;-61
2023/01/20 14:03:29;;;;;;;;;14.00;10.50;;;;;;;;117857;1192;24885;-62
2023/01/20 14:06:04;;;;;;;;;16.25;14.25;;;;;;;;117868;1181;25580;-62
2023/01/20 14:08:38;;;;;;;;;15.33;12.67;;;;;;;;117492;1180;24844;-62
2023/01/20 14:11:09;;;;;;;;;12.33;10.67;;;;;;;;117868;1192;25396;-62
2023/01/20 14:13:39;;;;;;;;;11.50;11.50;;;;;;;;117823;1179;25669;-62
2023/01/20 14:16:19;;;;;;;;;16.00;14.00;;;;;;;;117810;1180;25129;-61
2023/01/20 14:18:54;;;;;;;;;13.50;12.00;;;;;;;;117794;1192;25279;-61
2023/01/20 14:21:44;;;;;;;;;11.50;10.75;;;;;;;;117856;1181;24951;-62
2023/01/20 14:24:27;;;;;;;;;13.75;11.75;;;;;;;;117923;1179;25212;-61
2023/01/20 14:27:27;;;;;;;;;13.00;12.00;;;;;;;;117941;1179;25504;-62
2023/01/20 14:29:59;;;;;;;;;11.00;11.00;;;;;;;;117813;1187;24759;-63
2023/01/20 14:32:32;;;;;;;;;9.00;9.00;;;;;;;;117506;1192;25666;-63
2023/01/20 14:35:01;;;;;;;;;13.00;9.00;;;;;;;;117495;1181;25644;-63
2023/01/20 14:37:35;;;;;;;;;13.00;9.00;;;;;;;;117921;1192;24845;-63
2023/01/20 14:40:26;;;;;;;;;10.33;9.33;;;;;;;;117923;1186;24906;-63
2023/01/20 14:43:19;;;;;;;;;8.00;7.00;;;;;;;;117495;1180;25533;-61
2023/01/20 14:45:52;;;;;;;;;9.00;9.00;;;;;;;;117577;1181;25215;-62
2023/01/20 14:48:21;;;;;;;;;11.75;10.00;;;;;;;;117887;1180;25672;-62
2023/01/20 14:51:04;;;;;;;;;13.33;12.33;;;;;;;;117571;1179;24934;-61
2023/01/20 14:53:33;;;;;;;;;13.00;13.00;;;;;;;;117836;1179;24771;-61
2023/01/20 14:56:06;;;;;;;;;13.00;11.00;;;;;;;;117824;1186;24690;-61
2023/01/20 14:58:35;;;;;;;;;13.67;10.67;;;;;;;;117475;1184;25214;-63
2023/01/20 15:01:05;;;;;;;;;7.00;7.00;;;;;;;;117527;1180;25153;-61
2023/01/20 15:03:33;;;;;;;;;11.67;10.33;;;;;;;;117855;1180;25302;-61
2023/01/20 15:06:05;;;;;;;;;13.50;12.00;;;;;;;;117522;1183;25253;-61
2023/01/20 15:08:33;;;;;;;;;12.00;10.67;;;;;;;;117887;1180;25598;-62
2023/01/20 15:11:30;;;;;;;;;11.50;10.50;;;;;;;;117499;1192;24905;-61